Almond, North Carolina
Current Conditions -  °F | °C
As of 7:55 PM on Monday 26 Jan 2015 (Local Time) from KRHP Reporting Station
Broken Clouds Broken Clouds  
Wind Chill:   Ceiling: 10000
Heat Index:   Visibility: 10mi
Dew Point: -4°   Wind: 0mph
Humidity: 80%   Direction: NA
Pressure: 29.9"   Gusts: NA
Location:  35.37°N, 83.57°W
Report Text: KRHP 270055Z AUTO 00000KT 10SM SCT080 BKN100 BKN120 00/M04 A2990 RMK AO2 T10051036
Loading
Personal Weather Stations






























Interactive Weather Map New forecast layout! Learn more

10-Day Weather Forecast

Advertisements
Track Severe Weather on mobile